Time;durP1;ratioP1;P1;durP2;ratioP2;P2;SDS_P1;SDS_P2;PMS_P1;PMS_P2;Temp;Humidity;BMP_temperature;BMP_pressure;BME280_temperature;BME280_humidity;BME280_pressure;Samples;Min_cycle;Max_cycle;Signal;HPM_P1;HPM_P2
2022/04/22 00:00:22;;;;;;;12.48;5.70;;;10.10;99.90;;;;;;5047697;28;20037;-35
2022/04/22 00:02:48;;;;;;;12.00;6.47;;;10.10;99.90;;;;;;5045814;28;20503;-35
2022/04/22 00:05:14;;;;;;;8.82;5.88;;;10.10;99.90;;;;;;5044779;28;20122;-35
2022/04/22 00:07:40;;;;;;;12.75;6.32;;;10.00;99.90;;;;;;5029826;28;20052;-35
2022/04/22 00:10:08;;;;;;;8.88;5.97;;;10.00;99.90;;;;;;5028263;28;20045;-35
2022/04/22 00:12:34;;;;;;;11.43;6.18;;;9.90;99.90;;;;;;5045375;28;20041;-35
2022/04/22 00:14:59;;;;;;;13.05;6.43;;;9.90;99.90;;;;;;5046450;28;20036;-35
2022/04/22 00:17:25;;;;;;;9.57;6.20;;;9.80;99.90;;;;;;5029918;28;20040;-36
2022/04/22 00:19:51;;;;;;;9.25;5.70;;;9.70;99.90;;;;;;5046237;28;20041;-35
2022/04/22 00:22:16;;;;;;;9.90;6.63;;;9.70;99.90;;;;;;5045297;28;20049;-36
2022/04/22 00:24:42;;;;;;;10.52;6.60;;;9.70;99.90;;;;;;5046357;28;20041;-35
2022/04/22 00:27:08;;;;;;;8.85;6.25;;;9.60;99.90;;;;;;5027367;28;20377;-35
2022/04/22 00:29:33;;;;;;;13.10;6.57;;;9.60;99.90;;;;;;5046438;28;20133;-35
2022/04/22 00:31:59;;;;;;;13.55;6.80;;;9.50;99.90;;;;;;5045688;28;20428;-35
2022/04/22 00:34:25;;;;;;;11.32;6.00;;;9.50;99.90;;;;;;5045656;28;20053;-35
2022/04/22 00:36:50;;;;;;;10.88;6.68;;;9.50;99.90;;;;;;5030633;28;20045;-35
2022/04/22 00:39:16;;;;;;;12.73;7.30;;;9.50;99.90;;;;;;5045859;28;20404;-35
2022/04/22 00:41:42;;;;;;;12.00;6.50;;;9.40;99.90;;;;;;5045442;28;20059;-35
2022/04/22 00:44:08;;;;;;;10.87;6.73;;;9.40;99.90;;;;;;5045234;28;20041;-35
2022/04/22 00:46:34;;;;;;;13.87;6.77;;;9.30;99.90;;;;;;5031952;28;20033;-35
2022/04/22 00:49:00;;;;;;;11.50;6.17;;;9.30;99.90;;;;;;5043496;28;20470;-35
2022/04/22 00:51:26;;;;;;;11.87;6.20;;;9.30;99.90;;;;;;5044136;28;20110;-35
2022/04/22 00:53:52;;;;;;;13.50;6.90;;;9.30;99.90;;;;;;5045326;28;20087;-35
2022/04/22 00:56:19;;;;;;;10.60;6.80;;;9.20;99.90;;;;;;5034608;28;20079;-35
2022/04/22 00:58:47;;;;;;;14.10;7.00;;;9.20;99.90;;;;;;5039967;28;20110;-35
2022/04/22 01:01:13;;;;;;;12.70;6.77;;;9.10;99.90;;;;;;5045835;28;20124;-35
2022/04/22 01:09:46;;;;;;;13.13;7.37;;;9.20;99.90;;;;;;5042783;28;20493;-35
2022/04/22 01:12:06;;;;;;;11.40;7.17;;;9.20;99.90;;;;;;5044120;28;20116;-39
2022/04/22 01:14:32;;;;;;;12.43;7.10;;;9.20;99.90;;;;;;5045650;28;20068;-35
2022/04/22 01:17:00;;;;;;;12.13;7.43;;;9.20;99.90;;;;;;5029868;28;20109;-35
2022/04/22 01:19:27;;;;;;;12.83;7.33;;;9.10;99.90;;;;;;5043956;28;20037;-35
2022/04/22 01:21:52;;;;;;;15.27;7.60;;;9.10;99.90;;;;;;5044827;28;20213;-35
2022/04/22 01:24:18;;;;;;;14.90;7.57;;;9.20;99.90;;;;;;5044648;28;20260;-35
2022/04/22 01:26:46;;;;;;;11.07;6.97;;;9.10;99.90;;;;;;5028181;28;20047;-35
2022/04/22 01:29:14;;;;;;;16.87;7.33;;;9.10;99.90;;;;;;5043861;28;20043;-35
2022/04/22 01:31:41;;;;;;;11.53;7.33;;;9.10;99.90;;;;;;5043116;28;20162;-35
2022/04/22 01:34:07;;;;;;;13.57;7.37;;;9.10;99.90;;;;;;5042999;28;20041;-35
2022/04/22 01:36:33;;;;;;;12.17;7.07;;;9.10;99.90;;;;;;5031503;28;20431;-35
2022/04/22 01:38:58;;;;;;;14.90;7.37;;;9.10;99.90;;;;;;5041569;28;20547;-35
2022/04/22 01:41:24;;;;;;;12.53;6.43;;;9.10;99.90;;;;;;5044709;28;20082;-35
2022/04/22 01:43:50;;;;;;;11.97;7.03;;;9.00;99.90;;;;;;5043762;28;20134;-35
2022/04/22 01:46:16;;;;;;;14.43;7.00;;;9.00;99.90;;;;;;5034072;28;20060;-35
2022/04/22 01:48:42;;;;;;;17.53;7.67;;;8.90;99.90;;;;;;5037277;28;20045;-35
2022/04/22 01:51:08;;;;;;;13.43;7.07;;;8.90;99.90;;;;;;5043774;28;20047;-35
2022/04/22 01:53:34;;;;;;;14.63;6.80;;;8.90;99.90;;;;;;5042841;28;20052;-35
2022/04/22 01:55:59;;;;;;;12.17;7.20;;;8.90;99.90;;;;;;5044840;28;20049;-35
2022/04/22 01:58:25;;;;;;;13.47;6.77;;;8.80;99.90;;;;;;5027876;28;20341;-35
2022/04/22 02:00:51;;;;;;;13.97;7.57;;;8.80;99.90;;;;;;5046873;28;20049;-35
2022/04/22 02:03:16;;;;;;;11.60;7.07;;;8.70;99.90;;;;;;5041523;28;20048;-35
2022/04/22 02:05:42;;;;;;;10.23;6.63;;;8.70;99.90;;;;;;5043852;28;20086;-35
2022/04/22 02:08:09;;;;;;;11.20;6.53;;;8.70;99.90;;;;;;5026781;28;20052;-35
2022/04/22 02:10:35;;;;;;;11.43;6.73;;;8.70;99.90;;;;;;5026871;28;20060;-35
2022/04/22 02:13:00;;;;;;;13.20;7.10;;;8.60;99.90;;;;;;5043279;28;20431;-35
2022/04/22 02:15:29;;;;;;;11.50;7.13;;;8.60;99.90;;;;;;5042942;28;20408;-35
2022/04/22 02:17:55;;;;;;;10.93;6.77;;;8.50;99.90;;;;;;5027500;28;20568;-35
2022/04/22 02:20:22;;;;;;;15.73;7.30;;;8.50;99.90;;;;;;5044272;28;20055;-35
2022/04/22 02:22:48;;;;;;;13.07;7.30;;;8.50;99.90;;;;;;5041424;28;20357;-35
2022/04/22 02:25:13;;;;;;;12.37;6.37;;;8.40;99.90;;;;;;5042183;28;20041;-35
2022/04/22 02:30:23;;;;;;;15.73;7.00;;;8.40;99.90;;;;;;5044517;28;20056;-35
2022/04/22 02:32:50;;;;;;;11.17;6.40;;;8.40;99.90;;;;;;5043067;28;20037;-35
2022/04/22 02:35:17;;;;;;;12.20;6.77;;;8.30;99.90;;;;;;5043836;28;20037;-35
2022/04/22 02:37:42;;;;;;;12.73;5.93;;;8.30;99.90;;;;;;5028390;28;20037;-35
2022/04/22 02:40:09;;;;;;;11.57;6.60;;;8.30;99.90;;;;;;5043686;28;20051;-35
2022/04/22 02:45:28;;;;;;;14.33;7.20;;;8.20;99.90;;;;;;5043925;28;20118;-35
2022/04/22 02:47:57;;;;;;;10.97;6.70;;;8.20;99.90;;;;;;5027614;28;20053;-35
2022/04/22 02:50:23;;;;;;;13.60;6.87;;;8.10;99.90;;;;;;5042875;28;20056;-35
2022/04/22 02:52:49;;;;;;;10.87;6.73;;;8.10;99.90;;;;;;5042857;28;20056;-35
2022/04/22 02:55:14;;;;;;;19.20;6.73;;;8.10;99.90;;;;;;5044287;28;20419;-35
2022/04/22 02:57:43;;;;;;;11.77;6.90;;;8.10;99.90;;;;;;5027725;28;20057;-35
2022/04/22 03:00:12;;;;;;;12.03;6.80;;;8.00;99.90;;;;;;5046126;28;20033;-35
2022/04/22 03:02:38;;;;;;;12.17;6.37;;;8.00;99.90;;;;;;5043202;28;20128;-35
2022/04/22 03:05:04;;;;;;;11.33;6.63;;;8.00;99.90;;;;;;5039844;28;20136;-35
2022/04/22 03:07:29;;;;;;;10.93;6.60;;;8.00;99.90;;;;;;5025882;28;20087;-35
2022/04/22 03:09:55;;;;;;;10.67;6.10;;;7.80;99.90;;;;;;5043370;28;20124;-35
2022/04/22 03:12:22;;;;;;;15.60;6.80;;;7.90;99.90;;;;;;5043037;28;20131;-35
2022/04/22 03:14:47;;;;;;;9.40;5.73;;;7.90;99.90;;;;;;5046155;28;20087;-35
2022/04/22 03:17:13;;;;;;;14.00;6.40;;;7.80;99.90;;;;;;5030386;28;20036;-35
2022/04/22 03:19:39;;;;;;;10.80;6.73;;;7.80;99.90;;;;;;5046908;28;20047;-35
2022/04/22 03:22:05;;;;;;;14.20;6.83;;;7.80;99.90;;;;;;5046690;28;20652;-35
2022/04/22 03:24:31;;;;;;;16.33;7.43;;;7.70;99.90;;;;;;5047283;28;20064;-35
2022/04/22 03:26:57;;;;;;;10.90;6.30;;;7.70;99.90;;;;;;5031267;28;20071;-34
2022/04/22 03:29:22;;;;;;;12.63;6.60;;;7.70;99.90;;;;;;5045556;28;20419;-35
2022/04/22 03:31:48;;;;;;;14.60;6.80;;;7.70;99.90;;;;;;5047003;28;20492;-35
2022/04/22 03:34:13;;;;;;;12.77;6.57;;;7.70;99.90;;;;;;5045930;28;20045;-35
2022/04/22 03:36:39;;;;;;;10.10;6.30;;;7.60;99.90;;;;;;5033789;28;20036;-35
2022/04/22 03:39:05;;;;;;;11.87;6.80;;;7.60;99.90;;;;;;5045075;28;20037;-35
2022/04/22 03:41:30;;;;;;;12.20;6.53;;;7.60;99.90;;;;;;5047406;28;20048;-34
2022/04/22 03:43:56;;;;;;;15.63;6.70;;;7.60;99.90;;;;;;5045836;28;20152;-34
2022/04/22 03:46:22;;;;;;;11.33;6.63;;;7.50;99.90;;;;;;5035299;28;20412;-35
2022/04/22 03:48:47;;;;;;;12.30;6.23;;;7.60;99.90;;;;;;5042728;28;20061;-35
2022/04/22 03:51:13;;;;;;;8.80;6.33;;;7.50;99.90;;;;;;5046287;28;20455;-35
2022/04/22 03:53:40;;;;;;;15.73;6.23;;;7.50;99.90;;;;;;5045631;28;20463;-35
2022/04/22 03:58:50;;;;;;;10.13;6.47;;;7.50;99.90;;;;;;5042743;28;20087;-34
2022/04/22 04:01:16;;;;;;;15.57;6.33;;;7.40;99.90;;;;;;5048904;28;20076;-34
2022/04/22 04:03:41;;;;;;;11.77;6.33;;;7.40;99.90;;;;;;5043842;28;21457;-34
2022/04/22 04:06:07;;;;;;;10.00;6.30;;;7.40;99.90;;;;;;5040199;28;20555;-35
2022/04/22 04:08:33;;;;;;;10.80;6.20;;;7.30;99.90;;;;;;5035660;28;20594;-35
2022/04/22 04:15:57;;;;;;;12.03;5.90;;;7.40;99.90;;;;;;5043855;28;20044;-35
2022/04/22 04:16:29;;;;;;;10.67;5.50;;;7.30;99.90;;;;;;5034247;28;20542;-35
2022/04/22 04:23:14;;;;;;;11.20;5.87;;;7.30;99.90;;;;;;5042128;28;20135;-34
2022/04/22 04:24:24;;;;;;;7.43;5.17;;;7.20;99.90;;;;;;5059704;28;20118;-34
2022/04/22 04:26:50;;;;;;;10.90;6.07;;;7.30;99.90;;;;;;5029581;28;20057;-34
2022/04/22 04:29:16;;;;;;;10.63;5.60;;;7.20;99.90;;;;;;5044733;28;20057;-34
2022/04/22 04:31:41;;;;;;;9.27;5.50;;;7.20;99.90;;;;;;5046225;28;20080;-34
2022/04/22 04:34:07;;;;;;;8.33;5.40;;;7.30;99.90;;;;;;5045313;28;20037;-34
2022/04/22 04:36:32;;;;;;;9.47;5.37;;;7.10;99.90;;;;;;5032621;28;20424;-35
2022/04/22 04:38:58;;;;;;;8.53;4.73;;;7.20;99.90;;;;;;5042825;28;20068;-34
2022/04/22 04:41:24;;;;;;;9.80;5.07;;;7.10;99.90;;;;;;5045862;28;20056;-34
2022/04/22 04:43:51;;;;;;;8.30;5.03;;;7.10;99.90;;;;;;5045186;28;20496;-34
2022/04/22 04:46:17;;;;;;;6.63;4.97;;;7.10;99.90;;;;;;5034795;28;20090;-35
2022/04/22 04:48:43;;;;;;;10.13;5.27;;;7.10;99.90;;;;;;5040579;28;20552;-34
2022/04/22 04:51:09;;;;;;;11.27;5.07;;;7.10;99.90;;;;;;5043012;28;20110;-35
2022/04/22 04:53:35;;;;;;;7.63;5.30;;;7.10;99.90;;;;;;5044886;28;20048;-34
2022/04/22 04:56:01;;;;;;;8.43;4.53;;;7.10;99.90;;;;;;5045495;28;20048;-35
2022/04/22 04:58:27;;;;;;;5.67;4.20;;;7.10;99.90;;;;;;5028078;28;20053;-35
2022/04/22 05:00:53;;;;;;;7.80;5.00;;;7.10;99.90;;;;;;5045347;28;20455;-35
2022/04/22 05:03:19;;;;;;;9.77;4.70;;;7.10;99.90;;;;;;5042977;28;20039;-34
2022/04/22 05:05:44;;;;;;;10.43;4.80;;;7.30;99.90;;;;;;5044398;28;20558;-35
2022/04/22 05:08:10;;;;;;;8.83;4.63;;;7.10;99.90;;;;;;5028045;28;20048;-35
2022/04/22 05:10:36;;;;;;;10.53;4.67;;;7.20;99.90;;;;;;5044973;28;20055;-34
2022/04/22 05:13:03;;;;;;;8.87;4.60;;;7.20;99.90;;;;;;5044891;28;20041;-34
2022/04/22 05:15:33;;;;;;;8.60;5.00;;;7.20;99.90;;;;;;5045021;28;20476;-34
2022/04/22 05:17:59;;;;;;;10.03;5.30;;;7.20;99.90;;;;;;5026967;28;20048;-35
2022/04/22 05:20:25;;;;;;;8.43;4.23;;;7.20;99.90;;;;;;5041686;28;20052;-34
2022/04/22 05:22:52;;;;;;;8.53;4.70;;;7.20;99.90;;;;;;5043047;28;20076;-35
2022/04/22 05:25:19;;;;;;;5.40;3.87;;;7.40;99.90;;;;;;5042990;28;20130;-34
2022/04/22 05:27:45;;;;;;;7.97;4.77;;;7.30;99.90;;;;;;5026758;28;20041;-35
2022/04/22 05:32:57;;;;;;;8.93;4.23;;;7.40;99.90;;;;;;5042097;28;20320;-34
2022/04/22 05:35:27;;;;;;;7.20;4.27;;;7.50;99.90;;;;;;5042949;28;20461;-35
2022/04/22 05:37:58;;;;;;;6.97;4.03;;;7.50;99.90;;;;;;5026837;28;20068;-35
2022/04/22 05:40:26;;;;;;;7.55;4.20;;;7.60;99.90;;;;;;5044274;28;20136;-35
2022/04/22 05:42:53;;;;;;;4.57;3.30;;;7.70;99.90;;;;;;5044327;28;20138;-35
2022/04/22 05:45:20;;;;;;;8.57;3.77;;;7.80;99.90;;;;;;5026725;28;20144;-35
2022/04/22 05:47:46;;;;;;;5.43;3.40;;;7.90;99.90;;;;;;5028760;28;20128;-35
2022/04/22 05:50:13;;;;;;;6.67;3.60;;;8.00;99.90;;;;;;5044259;28;20120;-35
2022/04/22 05:52:39;;;;;;;4.80;3.30;;;8.10;99.90;;;;;;5041407;28;20087;-35
2022/04/22 05:55:07;;;;;;;6.70;3.60;;;8.20;99.90;;;;;;5045131;28;20102;-35
2022/04/22 05:57:33;;;;;;;7.27;3.43;;;8.30;99.90;;;;;;5027811;28;20094;-35
2022/04/22 06:00:03;;;;;;;8.13;3.27;;;8.40;99.90;;;;;;5044655;28;20036;-35
2022/04/22 06:02:30;;;;;;;4.70;3.20;;;8.50;99.90;;;;;;5042856;28;20484;-35
2022/04/22 06:04:55;;;;;;;6.57;3.30;;;8.60;99.90;;;;;;5042365;28;20494;-35
2022/04/22 06:07:21;;;;;;;4.67;3.13;;;8.70;99.90;;;;;;5028331;28;20036;-35
2022/04/22 06:12:32;;;;;;;6.20;3.07;;;9.00;99.90;;;;;;5058679;28;20041;-35
2022/04/22 06:15:02;;;;;;;5.80;2.93;;;9.10;99.90;;;;;;5044433;28;20424;-35
2022/04/22 06:17:28;;;;;;;4.23;2.90;;;9.20;99.90;;;;;;5027987;28;20053;-35
2022/04/22 06:19:55;;;;;;;4.80;2.70;;;9.30;99.90;;;;;;5043990;28;20049;-35
2022/04/22 06:22:20;;;;;;;5.23;3.13;;;9.30;99.90;;;;;;5043608;28;20210;-35
2022/04/22 06:24:46;;;;;;;4.97;3.00;;;9.50;99.90;;;;;;5044239;28;20041;-35
2022/04/22 06:27:12;;;;;;;6.97;3.07;;;9.60;99.90;;;;;;5025879;28;20635;-35
2022/04/22 06:29:38;;;;;;;3.80;2.77;;;9.70;99.90;;;;;;5043954;28;20468;-35
2022/04/22 06:32:04;;;;;;;9.27;3.60;;;9.80;99.90;;;;;;5042334;28;20044;-35
2022/04/22 06:34:30;;;;;;;4.70;2.97;;;9.90;99.90;;;;;;5037314;28;20053;-35
2022/04/22 06:36:57;;;;;;;5.17;2.47;;;10.00;99.90;;;;;;5026442;28;20033;-36
2022/04/22 06:39:23;;;;;;;6.27;2.97;;;10.10;99.90;;;;;;5031158;28;20041;-36
2022/04/22 06:47:18;;;;;;;5.33;2.90;;;10.30;99.90;;;;;;5025481;28;20051;-36
2022/04/22 06:49:44;;;;;;;6.83;2.80;;;10.40;99.90;;;;;;5043204;28;20041;-36
2022/04/22 06:52:10;;;;;;;3.77;2.43;;;10.40;99.90;;;;;;5038690;28;20354;-36
2022/04/22 06:54:36;;;;;;;3.13;2.30;;;10.50;99.90;;;;;;5042188;28;20511;-36
2022/04/22 06:57:03;;;;;;;4.70;2.57;;;10.60;99.90;;;;;;5026615;28;20051;-36
2022/04/22 06:59:31;;;;;;;4.77;2.77;;;10.60;99.90;;;;;;5040684;28;20044;-36
2022/04/22 07:01:57;;;;;;;3.90;2.80;;;10.60;99.90;;;;;;5041977;28;20044;-36
2022/04/22 07:04:24;;;;;;;7.35;2.55;;;10.70;99.90;;;;;;5044004;28;20060;-36
2022/04/22 07:06:51;;;;;;;6.65;2.90;;;10.80;99.90;;;;;;5028737;28;20907;-35
2022/04/22 07:09:17;;;;;;;5.67;2.83;;;10.80;99.90;;;;;;5024621;28;20515;-35
2022/04/22 07:11:44;;;;;;;6.38;2.70;;;10.90;99.90;;;;;;5041504;28;20056;-35
2022/04/22 07:14:11;;;;;;;5.20;2.50;;;10.90;99.90;;;;;;5044308;28;20546;-35
2022/04/22 07:16:48;;;;;;;6.93;2.55;;;10.90;99.90;;;;;;5029770;28;20044;-35
2022/04/22 07:19:14;;;;;;;7.70;3.45;;;11.00;99.90;;;;;;5039821;28;20088;-35
2022/04/22 07:21:40;;;;;;;6.78;2.60;;;11.00;99.90;;;;;;5041506;28;20153;-35
2022/04/22 07:24:06;;;;;;;5.63;2.70;;;11.10;99.90;;;;;;5042861;28;20572;-35
2022/04/22 07:26:32;;;;;;;8.80;2.72;;;11.10;99.90;;;;;;5029676;28;20097;-36
2022/04/22 07:29:00;;;;;;;5.80;2.50;;;11.10;99.90;;;;;;5040101;28;20225;-35
2022/04/22 07:31:29;;;;;;;7.15;2.78;;;11.20;99.90;;;;;;5043931;28;20052;-35
2022/04/22 07:33:55;;;;;;;5.03;2.97;;;11.20;99.90;;;;;;5039525;28;20045;-35
2022/04/22 07:36:21;;;;;;;6.93;2.50;;;11.20;99.90;;;;;;5031541;28;20037;-35
2022/04/22 07:38:47;;;;;;;7.40;3.03;;;11.20;99.90;;;;;;5039459;28;20500;-35
2022/04/22 07:41:18;;;;;;;4.95;2.42;;;11.30;99.90;;;;;;5040470;28;20044;-35
2022/04/22 07:46:48;;;;;;;7.72;2.97;;;11.30;99.90;;;;;;5033383;28;20362;-35
2022/04/22 07:49:15;;;;;;;5.43;2.80;;;11.30;99.90;;;;;;5042851;28;20048;-35
2022/04/22 07:51:40;;;;;;;4.95;2.70;;;11.30;99.90;;;;;;5044348;28;20672;-35
2022/04/22 07:54:12;;;;;;;5.65;2.70;;;11.30;99.90;;;;;;5039283;28;20049;-35
2022/04/22 07:56:38;;;;;;;;;;;11.30;99.90;;;;;;5030574;28;20508;-35
2022/04/22 07:59:03;;;;;;;5.72;2.92;;;11.30;99.90;;;;;;5043071;28;19925;-35
2022/04/22 08:01:29;;;;;;;5.53;3.15;;;11.30;99.90;;;;;;5043860;28;20049;-35
2022/04/22 08:03:58;;;;;;;6.93;2.60;;;11.30;99.90;;;;;;5042882;28;20049;-35
2022/04/22 08:06:24;;;;;;;3.78;2.65;;;11.40;99.90;;;;;;5030670;28;20060;-35
2022/04/22 08:08:49;;;;;;;8.15;3.25;;;11.40;99.90;;;;;;5036782;28;20041;-35
2022/04/22 08:11:15;;;;;;;5.35;2.55;;;11.40;99.90;;;;;;5043767;28;20099;-35
2022/04/22 08:13:41;;;;;;;7.50;2.78;;;11.50;99.90;;;;;;5042116;28;20140;-35
2022/04/22 08:16:07;;;;;;;6.45;2.90;;;11.40;99.90;;;;;;5043078;28;20332;-35
2022/04/22 08:18:33;;;;;;;6.40;2.70;;;11.50;99.90;;;;;;5027259;28;20049;-35
2022/04/22 08:20:58;;;;;;;4.18;2.70;;;11.50;99.90;;;;;;5042747;28;20493;-35
2022/04/22 08:23:24;;;;;;;5.32;2.72;;;11.50;99.90;;;;;;5041617;28;20047;-35
2022/04/22 08:25:50;;;;;;;6.18;2.72;;;11.50;99.90;;;;;;5042297;28;20080;-35
2022/04/22 08:28:16;;;;;;;5.32;2.40;;;11.60;99.90;;;;;;5026676;28;20668;-35
2022/04/22 08:30:41;;;;;;;6.70;2.63;;;11.60;99.90;;;;;;5041947;28;20037;-35
2022/04/22 08:33:07;;;;;;;6.35;3.33;;;11.60;99.90;;;;;;5043149;28;20071;-35
2022/04/22 08:35:35;;;;;;;5.78;2.70;;;11.60;99.90;;;;;;5045120;28;20040;-35
2022/04/22 08:38:03;;;;;;;5.05;2.53;;;11.70;99.90;;;;;;5027708;28;20429;-35
2022/04/22 08:40:30;;;;;;;6.55;2.60;;;11.70;99.90;;;;;;5044796;28;20131;-35
2022/04/22 08:43:00;;;;;;;7.35;2.70;;;11.70;99.90;;;;;;5043839;28;20110;-35
2022/04/22 08:45:26;;;;;;;5.43;2.70;;;11.80;99.90;;;;;;5039520;28;20044;-35
2022/04/22 08:50:40;;;;;;;6.28;2.90;;;11.80;99.90;;;;;;5043031;28;20102;-36
2022/04/22 08:53:08;;;;;;;5.63;3.10;;;11.90;99.90;;;;;;5042088;28;20063;-35
2022/04/22 08:55:34;;;;;;;7.43;2.78;;;12.00;99.90;;;;;;5043992;28;20055;-35
2022/04/22 08:58:05;;;;;;;5.82;2.70;;;12.00;99.90;;;;;;5027984;28;20475;-35
2022/04/22 09:00:35;;;;;;;8.98;2.92;;;12.10;99.90;;;;;;5044540;28;20411;-35
2022/04/22 09:03:01;;;;;;;5.78;2.80;;;12.10;99.90;;;;;;5043036;28;20053;-35
2022/04/22 09:05:29;;;;;;;5.20;2.65;;;12.20;99.90;;;;;;5044503;28;20037;-35
2022/04/22 09:07:55;;;;;;;5.15;2.80;;;12.20;99.90;;;;;;5026726;28;20098;-35
2022/04/22 09:10:21;;;;;;;4.72;2.78;;;12.30;99.90;;;;;;5042209;28;20055;-35
2022/04/22 09:12:55;;;;;;;5.05;2.42;;;12.30;99.90;;;;;;5040090;28;20053;-35
2022/04/22 09:15:23;;;;;;;6.85;2.85;;;12.50;99.90;;;;;;5043093;28;20059;-35
2022/04/22 09:17:49;;;;;;;5.97;2.72;;;12.50;99.90;;;;;;5026329;28;20412;-36
2022/04/22 09:20:15;;;;;;;7.05;2.60;;;12.50;99.90;;;;;;5043813;28;20520;-35
2022/04/22 09:22:44;;;;;;;5.45;2.88;;;12.50;99.90;;;;;;5040395;28;20130;-35
2022/04/22 09:25:10;;;;;;;4.35;2.45;;;12.60;99.90;;;;;;5043036;28;20056;-35
2022/04/22 09:27:44;;;;;;;9.88;2.80;;;12.60;99.90;;;;;;5025775;28;20040;-36
2022/04/22 09:30:12;;;;;;;7.47;2.50;;;12.60;99.90;;;;;;5042496;28;20044;-36
2022/04/22 09:32:44;;;;;;;6.13;2.88;;;12.70;99.90;;;;;;5037131;28;20477;-35
2022/04/22 09:35:17;;;;;;;6.38;2.25;;;12.70;99.90;;;;;;5023936;28;20117;-35
2022/04/22 09:43:23;;;;;;;4.15;2.80;;;12.90;99.90;;;;;;5026957;28;20045;-35
2022/04/22 09:45:51;;;;;;;5.50;2.90;;;12.90;99.90;;;;;;5005111;28;20045;-35
2022/04/22 09:48:19;;;;;;;4.57;2.97;;;12.90;99.90;;;;;;5024922;28;20186;-35
2022/04/22 09:50:55;;;;;;;7.00;2.38;;;13.00;99.90;;;;;;5041268;28;20149;-35
2022/04/22 09:53:35;;;;;;;3.92;2.53;;;13.00;99.90;;;;;;5039884;28;20052;-35
2022/04/22 09:56:09;;;;;;;8.15;2.80;;;13.00;99.90;;;;;;5043721;28;20045;-35
2022/04/22 09:58:35;;;;;;;6.00;2.50;;;13.10;99.90;;;;;;5031464;28;20067;-35
2022/04/22 10:01:06;;;;;;;4.68;2.95;;;13.10;99.90;;;;;;5039978;28;20419;-36
2022/04/22 10:03:36;;;;;;;5.70;2.53;;;13.10;99.90;;;;;;5041366;28;20094;-35
2022/04/22 10:06:03;;;;;;;5.22;2.28;;;13.20;99.90;;;;;;5042877;28;20044;-35
2022/04/22 10:08:36;;;;;;;5.53;2.65;;;13.20;99.90;;;;;;5025983;28;20477;-35
2022/04/22 10:11:06;;;;;;;6.45;2.85;;;13.30;99.90;;;;;;5043300;28;20442;-35
2022/04/22 10:13:39;;;;;;;4.32;2.55;;;13.40;99.90;;;;;;5040603;28;20114;-35
2022/04/22 10:16:08;;;;;;;5.65;2.47;;;13.40;99.90;;;;;;5041371;28;20404;-35
2022/04/22 10:18:35;;;;;;;6.47;2.95;;;13.70;99.90;;;;;;5030129;28;20113;-36
2022/04/22 10:21:02;;;;;;;6.85;3.20;;;13.50;99.90;;;;;;5042790;28;20057;-36
2022/04/22 10:23:29;;;;;;;5.32;2.95;;;13.60;99.90;;;;;;5040908;28;20515;-35
2022/04/22 10:25:56;;;;;;;6.45;3.08;;;13.60;99.90;;;;;;5039925;28;20987;-35
2022/04/22 10:28:23;;;;;;;7.82;3.30;;;13.60;99.90;;;;;;5026635;28;20535;-35
2022/04/22 10:30:53;;;;;;;9.50;3.42;;;13.60;99.90;;;;;;5039573;28;20052;-36
2022/04/22 10:33:23;;;;;;;5.63;3.15;;;13.70;99.90;;;;;;5042019;28;20558;-35
2022/04/22 10:35:56;;;;;;;6.80;3.38;;;13.70;99.90;;;;;;5039891;28;20079;-35
2022/04/22 10:38:38;;;;;;;7.35;2.85;;;13.70;99.90;;;;;;5021808;28;20098;-36
2022/04/22 10:41:12;;;;;;;4.03;2.80;;;13.80;99.90;;;;;;5038654;28;20287;-36
2022/04/22 10:43:39;;;;;;;7.28;3.28;;;13.90;99.90;;;;;;5035078;28;20397;-36
2022/04/22 10:49:13;;;;;;;5.40;3.13;;;14.00;99.90;;;;;;5025871;28;20047;-36
2022/04/22 10:52:11;;;;;;;7.55;3.53;;;14.20;99.90;;;;;;5038514;28;20043;-36
2022/04/22 10:54:52;;;;;;;8.20;3.25;;;14.20;99.90;;;;;;5033718;28;20191;-36
2022/04/22 10:57:27;;;;;;;6.63;3.00;;;14.20;99.90;;;;;;5022113;28;20044;-36
2022/04/22 11:00:29;;;;;;;6.53;3.60;;;14.30;99.90;;;;;;5037442;28;20049;-35
2022/04/22 11:03:09;;;;;;;6.10;3.15;;;14.40;99.90;;;;;;5040362;28;20056;-35
2022/04/22 11:05:36;;;;;;;6.05;3.00;;;14.50;99.90;;;;;;5039314;28;20160;-36
2022/04/22 11:08:04;;;;;;;5.43;3.28;;;14.60;99.90;;;;;;5024093;28;20436;-35
2022/04/22 11:10:49;;;;;;;8.95;3.80;;;14.60;99.90;;;;;;5041555;28;20039;-36
2022/04/22 11:13:31;;;;;;;5.38;3.58;;;14.70;99.90;;;;;;5041193;28;20281;-36
2022/04/22 11:16:13;;;;;;;5.32;3.70;;;14.80;99.90;;;;;;5041615;28;20041;-36
2022/04/22 11:18:41;;;;;;;8.07;3.20;;;14.90;99.90;;;;;;5033030;28;20048;-36
2022/04/22 11:21:35;;;;;;;6.43;3.08;;;15.00;99.90;;;;;;5041937;28;20308;-36
2022/04/22 11:24:09;;;;;;;6.85;3.05;;;15.10;99.90;;;;;;5039167;28;20136;-35
2022/04/22 11:26:35;;;;;;;7.88;2.92;;;15.10;99.90;;;;;;5026810;28;20087;-36
2022/04/22 11:29:07;;;;;;;5.10;3.30;;;15.20;99.90;;;;;;5038091;28;20586;-36
2022/04/22 11:31:34;;;;;;;;;;;15.20;99.90;;;;;;5042048;28;20072;-36
2022/04/22 11:34:11;;;;;;;13.10;2.78;;;15.30;99.90;;;;;;5042126;28;19933;-36
2022/04/22 11:36:45;;;;;;;4.18;3.15;;;15.40;99.90;;;;;;5047461;28;20060;-36
2022/04/22 11:39:23;;;;;;;5.10;3.55;;;15.40;99.90;;;;;;5044930;28;20083;-36
2022/04/22 11:41:57;;;;;;;6.57;3.47;;;15.50;99.90;;;;;;5044618;28;20049;-36
2022/04/22 11:44:24;;;;;;;7.88;3.95;;;15.60;99.90;;;;;;5038672;28;20073;-36
2022/04/22 11:46:51;;;;;;;5.70;3.85;;;15.70;99.90;;;;;;5027875;28;20397;-36
2022/04/22 11:49:17;;;;;;;4.10;3.63;;;15.80;99.90;;;;;;5044841;28;20045;-36
2022/04/22 11:51:42;;;;;;;7.47;3.70;;;15.80;99.90;;;;;;5045105;28;20562;-36
2022/04/22 11:54:08;;;;;;;4.90;3.50;;;15.90;99.90;;;;;;5025946;28;20056;-36
2022/04/22 11:56:36;;;;;;;10.13;3.85;;;16.00;99.90;;;;;;5026578;28;20714;-36
2022/04/22 11:59:02;;;;;;;4.95;3.75;;;16.10;99.90;;;;;;5023719;28;20122;-36
2022/04/22 12:08:00;;;;;;;8.30;3.80;;;16.30;99.90;;;;;;5008134;28;20481;-36
2022/04/22 12:10:00;;;;;;;5.50;3.83;;;16.40;99.90;;;;;;5022471;28;20350;-36
2022/04/22 12:12:31;;;;;;;6.03;3.88;;;16.40;99.90;;;;;;5022612;28;20056;-36
2022/04/22 12:15:04;;;;;;;5.75;3.78;;;16.40;99.90;;;;;;5022396;28;20444;-36
2022/04/22 12:17:30;;;;;;;7.40;4.13;;;16.50;99.90;;;;;;5008151;28;20072;-37
2022/04/22 12:19:56;;;;;;;6.43;3.67;;;16.60;99.90;;;;;;5022480;28;20049;-37
2022/04/22 12:22:24;;;;;;;6.50;3.70;;;16.60;99.90;;;;;;5023600;28;20045;-36
2022/04/22 12:25:13;;;;;;;10.70;4.10;;;16.70;99.90;;;;;;5021909;28;20493;-36
2022/04/22 12:27:40;;;;;;;7.70;3.92;;;16.80;99.90;;;;;;5012652;28;20431;-36
2022/04/22 12:30:10;;;;;;;6.28;4.10;;;16.80;99.90;;;;;;5043086;28;20524;-36
2022/04/22 12:32:38;;;;;;;6.47;3.80;;;16.90;99.90;;;;;;5042434;28;20044;-36
2022/04/22 12:35:17;;;;;;;6.72;3.65;;;16.90;99.90;;;;;;5045137;28;20044;-36
2022/04/22 12:37:51;;;;;;;7.03;4.10;;;16.90;99.90;;;;;;5026593;28;20057;-36
2022/04/22 12:40:19;;;;;;;5.60;3.88;;;17.00;99.90;;;;;;5042649;28;20374;-36
2022/04/22 12:42:45;;;;;;;9.50;4.40;;;17.00;99.90;;;;;;5043588;28;20049;-36
2022/04/22 12:53:51;;;;;;;6.80;3.55;;;17.20;99.90;;;;;;5042185;28;20064;-36
2022/04/22 12:56:24;;;;;;;10.63;4.45;;;17.30;99.90;;;;;;5047412;28;20484;-37
2022/04/22 12:58:56;;;;;;;5.25;4.05;;;17.30;99.90;;;;;;5038889;28;20045;-36
2022/04/22 13:01:26;;;;;;;7.57;4.07;;;17.40;99.90;;;;;;5041021;28;20045;-36
2022/04/22 13:03:52;;;;;;;6.40;4.13;;;17.50;99.90;;;;;;5042623;28;20045;-36
2022/04/22 13:06:39;;;;;;;6.82;3.67;;;17.50;99.90;;;;;;5033734;28;20110;-37
2022/04/22 13:09:07;;;;;;;5.45;3.42;;;17.60;99.90;;;;;;5038301;28;20778;-36
2022/04/22 13:11:33;;;;;;;6.18;4.00;;;17.60;99.90;;;;;;5044519;28;20037;-36
2022/04/22 13:14:00;;;;;;;5.32;4.32;;;17.70;99.90;;;;;;5043639;28;20134;-36
2022/04/22 13:16:26;;;;;;;5.88;4.30;;;17.80;99.90;;;;;;5032116;28;20432;-37
2022/04/22 13:18:52;;;;;;;8.07;4.55;;;17.90;99.90;;;;;;5039489;28;20418;-37
2022/04/22 13:21:18;;;;;;;6.50;4.30;;;18.00;99.90;;;;;;5043672;28;20099;-36
2022/04/22 13:23:44;;;;;;;9.38;4.60;;;18.00;99.90;;;;;;5042404;28;20512;-36
2022/04/22 13:26:09;;;;;;;4.72;4.10;;;18.10;99.90;;;;;;5037067;28;20516;-37
2022/04/22 13:28:36;;;;;;;7.30;4.50;;;18.10;99.90;;;;;;5033354;28;20765;-36
2022/04/22 13:31:02;;;;;;;10.10;4.97;;;18.20;99.90;;;;;;5040423;28;20492;-36
2022/04/22 13:33:31;;;;;;;6.68;4.25;;;18.20;99.90;;;;;;5042729;28;20041;-36
2022/04/22 13:36:01;;;;;;;6.72;4.60;;;18.30;99.90;;;;;;5039565;28;20048;-36
2022/04/22 13:38:31;;;;;;;6.88;4.10;;;18.40;99.90;;;;;;5025519;28;20045;-36
2022/04/22 13:40:57;;;;;;;9.38;4.70;;;18.50;99.90;;;;;;5039678;28;20049;-37
2022/04/22 13:43:26;;;;;;;10.75;4.60;;;18.50;99.90;;;;;;5040744;28;20041;-36
2022/04/22 13:54:04;;;;;;;7.65;4.63;;;18.80;99.90;;;;;;5041522;28;20103;-36
2022/04/22 13:56:30;;;;;;;8.63;4.20;;;18.90;99.90;;;;;;5030947;28;20307;-37
2022/04/22 13:58:56;;;;;;;8.20;4.22;;;19.00;99.90;;;;;;5034315;28;20128;-37